AIQ3405 VTBS-VTCC
Flight info
| Callsign | AIQ3405 |
|---|---|
| Flight time | 0h 59m |
| Altitude | 32000 |
| Route | OLVUK1K OLVUK Y26 MARNI MARNI2A |
| Aircraft | A20N/M-SDE2E3FGHIRWXY/LB1 |
Departure
| Time | 2026-05-04 21:07 |
|---|---|
| Airport | Suvarnabhumi Airport (VTBS) |
Arrival
| Time | 2026-05-04 22:07 |
|---|---|
| Airport | Chiang Mai International Airport (VTCC) |
| Time | Latitude | Longitude | Altitude | Speed | Heading |
|---|---|---|---|---|---|
| 2026-05-04 20:49 | 13.69278 | 100.75537 | 13 ft | 0 kts | 284° |
| 2026-05-04 20:57 | 13.69275 | 100.75549 | 13 ft | 2 kts | 284° |
| 2026-05-04 20:57 | 13.69271 | 100.75566 | 13 ft | 2 kts | 284° |
| 2026-05-04 20:58 | 13.69267 | 100.75582 | 13 ft | 2 kts | 283° |
| 2026-05-04 20:58 | 13.69263 | 100.75599 | 16 ft | 2 kts | 282° |
| 2026-05-04 20:58 | 13.69260 | 100.75616 | 15 ft | 2 kts | 277° |
| 2026-05-04 20:58 | 13.69261 | 100.75633 | 14 ft | 2 kts | 230° |
| 2026-05-04 20:59 | 13.69269 | 100.75639 | 16 ft | 1 kts | 191° |
| 2026-05-04 21:00 | 13.69247 | 100.75633 | 16 ft | 8 kts | 193° |
| 2026-05-04 21:01 | 13.69172 | 100.75638 | 13 ft | 14 kts | 148° |
| 2026-05-04 21:01 | 13.69133 | 100.75752 | 13 ft | 20 kts | 102° |
| 2026-05-04 21:01 | 13.69082 | 100.75885 | 14 ft | 17 kts | 149° |
| 2026-05-04 21:01 | 13.69020 | 100.75876 | 13 ft | 10 kts | 197° |
| 2026-05-04 21:02 | 13.68938 | 100.75852 | 13 ft | 14 kts | 194° |
| 2026-05-04 21:02 | 13.68828 | 100.75824 | 13 ft | 18 kts | 194° |
| 2026-05-04 21:02 | 13.68697 | 100.75790 | 13 ft | 21 kts | 194° |
| 2026-05-04 21:02 | 13.68545 | 100.75749 | 13 ft | 24 kts | 195° |
| 2026-05-04 21:03 | 13.68374 | 100.75703 | 13 ft | 27 kts | 194° |
| 2026-05-04 21:03 | 13.68185 | 100.75654 | 12 ft | 29 kts | 194° |
| 2026-05-04 21:03 | 13.67980 | 100.75599 | 12 ft | 31 kts | 194° |
| 2026-05-04 21:03 | 13.67762 | 100.75545 | 12 ft | 33 kts | 195° |
| 2026-05-04 21:04 | 13.67534 | 100.75483 | 13 ft | 35 kts | 193° |
| 2026-05-04 21:04 | 13.67299 | 100.75424 | 13 ft | 36 kts | 194° |
| 2026-05-04 21:04 | 13.67052 | 100.75359 | 12 ft | 37 kts | 194° |
| 2026-05-04 21:04 | 13.66796 | 100.75291 | 12 ft | 38 kts | 194° |
| 2026-05-04 21:05 | 13.66534 | 100.75221 | 12 ft | 39 kts | 195° |
| 2026-05-04 21:05 | 13.66263 | 100.75150 | 13 ft | 40 kts | 193° |
| 2026-05-04 21:05 | 13.65990 | 100.75080 | 14 ft | 41 kts | 195° |
| 2026-05-04 21:05 | 13.65741 | 100.75017 | 13 ft | 12 kts | 170° |
| 2026-05-04 21:06 | 13.65691 | 100.75056 | 13 ft | 10 kts | 118° |
| 2026-05-04 21:06 | 13.65686 | 100.75139 | 13 ft | 13 kts | 83° |
| 2026-05-04 21:06 | 13.65738 | 100.75204 | 13 ft | 0 kts | 11° |
| 2026-05-04 21:06 | 13.65787 | 100.75215 | 14 ft | 34 kts | 14° |
| 2026-05-04 21:07 | 13.66261 | 100.75339 | 14 ft | 104 kts | 14° |
| 2026-05-04 21:07 | 13.67138 | 100.75569 | 14 ft | 154 kts | 14° |
| 2026-05-04 21:07 | 13.68259 | 100.75873 | 308 ft | 172 kts | 16° |
| 2026-05-04 21:07 | 13.69379 | 100.76352 | 865 ft | 176 kts | 40° |
| 2026-05-04 21:08 | 13.70133 | 100.77310 | 1597 ft | 173 kts | 60° |
| 2026-05-04 21:08 | 13.70741 | 100.78415 | 2085 ft | 186 kts | 61° |
| 2026-05-04 21:08 | 13.71456 | 100.79605 | 2434 ft | 206 kts | 57° |
| 2026-05-04 21:08 | 13.72339 | 100.80857 | 2827 ft | 226 kts | 53° |
| 2026-05-04 21:09 | 13.73364 | 100.82168 | 3473 ft | 238 kts | 51° |
| 2026-05-04 21:09 | 13.74425 | 100.83465 | 4490 ft | 237 kts | 51° |
| 2026-05-04 21:09 | 13.75499 | 100.84765 | 5416 ft | 240 kts | 50° |
| 2026-05-04 21:09 | 13.76583 | 100.86102 | 6181 ft | 250 kts | 52° |
| 2026-05-04 21:10 | 13.77691 | 100.87580 | 6662 ft | 272 kts | 54° |
| 2026-05-04 21:10 | 13.78851 | 100.89179 | 7245 ft | 286 kts | 54° |
| 2026-05-04 21:10 | 13.80037 | 100.90817 | 7343 ft | 283 kts | 54° |
| 2026-05-04 21:10 | 13.81216 | 100.92434 | 7448 ft | 283 kts | 54° |
| 2026-05-04 21:11 | 13.82003 | 100.93511 | 7525 ft | 285 kts | 53° |
| 2026-05-04 21:11 | 13.83600 | 100.95687 | 8243 ft | 289 kts | 53° |
| 2026-05-04 21:11 | 13.84539 | 100.96686 | 8951 ft | 289 kts | 38° |
| 2026-05-04 21:11 | 13.86352 | 100.97579 | 9869 ft | 295 kts | 13° |
| 2026-05-04 21:12 | 13.88427 | 100.97806 | 10494 ft | 310 kts | 4° |
| 2026-05-04 21:12 | 13.91427 | 100.97943 | 10880 ft | 341 kts | 3° |
| 2026-05-04 21:12 | 13.93054 | 100.98009 | 11197 ft | 351 kts | 3° |
| 2026-05-04 21:12 | 13.95507 | 100.98099 | 11965 ft | 355 kts | 359° |
| 2026-05-04 21:13 | 13.97935 | 100.97599 | 12740 ft | 360 kts | 338° |
| 2026-05-04 21:13 | 14.00081 | 100.96243 | 13503 ft | 366 kts | 318° |
| 2026-05-04 21:13 | 14.01864 | 100.94361 | 14205 ft | 370 kts | 312° |
| 2026-05-04 21:13 | 14.03562 | 100.92354 | 14906 ft | 373 kts | 310° |
| 2026-05-04 21:14 | 14.05261 | 100.90321 | 15601 ft | 376 kts | 311° |
| 2026-05-04 21:14 | 14.06993 | 100.88283 | 16286 ft | 379 kts | 311° |
| 2026-05-04 21:14 | 14.08754 | 100.86246 | 16963 ft | 383 kts | 311° |
| 2026-05-04 21:14 | 14.10541 | 100.84201 | 17621 ft | 386 kts | 312° |
| 2026-05-04 21:15 | 14.12351 | 100.82140 | 18270 ft | 389 kts | 312° |
| 2026-05-04 21:15 | 14.14175 | 100.80066 | 18844 ft | 392 kts | 312° |
| 2026-05-04 21:15 | 14.15985 | 100.78009 | 19427 ft | 394 kts | 312° |
| 2026-05-04 21:15 | 14.17833 | 100.75909 | 19981 ft | 397 kts | 312° |
| 2026-05-04 21:16 | 14.19698 | 100.73787 | 20527 ft | 400 kts | 311° |
| 2026-05-04 21:16 | 14.21572 | 100.71653 | 21083 ft | 403 kts | 311° |
| 2026-05-04 21:16 | 14.23459 | 100.69504 | 21635 ft | 406 kts | 311° |
| 2026-05-04 21:16 | 14.25360 | 100.67338 | 22174 ft | 409 kts | 311° |
| 2026-05-04 21:17 | 14.27279 | 100.65152 | 22735 ft | 412 kts | 311° |
| 2026-05-04 21:17 | 14.29204 | 100.62958 | 23265 ft | 414 kts | 311° |
| 2026-05-04 21:17 | 14.31142 | 100.60748 | 23724 ft | 417 kts | 311° |
| 2026-05-04 21:17 | 14.33100 | 100.58515 | 24165 ft | 420 kts | 311° |
| 2026-05-04 21:18 | 14.35065 | 100.56273 | 24596 ft | 422 kts | 311° |
| 2026-05-04 21:18 | 14.37043 | 100.54015 | 25021 ft | 425 kts | 311° |
| 2026-05-04 21:18 | 14.39030 | 100.51746 | 25433 ft | 427 kts | 311° |
| 2026-05-04 21:18 | 14.41030 | 100.49462 | 25852 ft | 430 kts | 311° |
| 2026-05-04 21:19 | 14.43035 | 100.47171 | 26251 ft | 432 kts | 311° |
| 2026-05-04 21:19 | 14.45056 | 100.44862 | 26620 ft | 435 kts | 311° |
| 2026-05-04 21:19 | 14.47090 | 100.42536 | 27008 ft | 437 kts | 311° |
| 2026-05-04 21:19 | 14.49136 | 100.40197 | 27374 ft | 440 kts | 311° |
| 2026-05-04 21:20 | 14.51194 | 100.37842 | 27744 ft | 442 kts | 311° |
| 2026-05-04 21:20 | 14.53226 | 100.35518 | 28083 ft | 445 kts | 311° |
| 2026-05-04 21:20 | 14.55308 | 100.33134 | 28434 ft | 447 kts | 311° |
| 2026-05-04 21:20 | 14.57400 | 100.30739 | 28774 ft | 450 kts | 311° |
| 2026-05-04 21:21 | 14.59498 | 100.28337 | 29108 ft | 452 kts | 311° |
| 2026-05-04 21:21 | 14.61610 | 100.25917 | 29429 ft | 454 kts | 311° |
| 2026-05-04 21:21 | 14.63813 | 100.23570 | 29738 ft | 457 kts | 317° |
| 2026-05-04 21:21 | 14.66363 | 100.21588 | 30042 ft | 461 kts | 327° |
| 2026-05-04 21:22 | 14.69218 | 100.20052 | 30317 ft | 465 kts | 336° |
| 2026-05-04 21:22 | 14.72284 | 100.18959 | 30605 ft | 468 kts | 341° |
| 2026-05-04 21:22 | 14.75386 | 100.17938 | 30890 ft | 470 kts | 341° |
| 2026-05-04 21:22 | 14.78502 | 100.16903 | 31231 ft | 470 kts | 341° |
| 2026-05-04 21:23 | 14.81575 | 100.15879 | 31611 ft | 470 kts | 341° |
| 2026-05-04 21:23 | 14.84682 | 100.14844 | 31732 ft | 468 kts | 341° |
| 2026-05-04 21:23 | 14.90945 | 100.12756 | 31902 ft | 480 kts | 341° |
| 2026-05-04 21:24 | 14.97375 | 100.10613 | 31904 ft | 486 kts | 341° |
| 2026-05-04 21:24 | 15.03801 | 100.08472 | 31901 ft | 485 kts | 341° |
| 2026-05-04 21:25 | 15.10223 | 100.06333 | 31901 ft | 485 kts | 341° |
| 2026-05-04 21:25 | 15.16651 | 100.04190 | 31904 ft | 485 kts | 341° |
| 2026-05-04 21:26 | 15.23079 | 100.02046 | 31905 ft | 485 kts | 341° |
| 2026-05-04 21:26 | 15.29502 | 99.99902 | 31903 ft | 485 kts | 341° |
| 2026-05-04 21:27 | 15.35932 | 99.97754 | 31902 ft | 485 kts | 341° |
| 2026-05-04 21:27 | 15.42357 | 99.95607 | 31901 ft | 485 kts | 341° |
| 2026-05-04 21:28 | 15.48781 | 99.93458 | 31897 ft | 485 kts | 341° |
| 2026-05-04 21:28 | 15.55206 | 99.91307 | 31900 ft | 485 kts | 341° |
| 2026-05-04 21:29 | 15.61623 | 99.89157 | 31901 ft | 484 kts | 341° |
| 2026-05-04 21:29 | 15.67995 | 99.87021 | 31902 ft | 484 kts | 341° |
| 2026-05-04 21:30 | 15.74410 | 99.84870 | 31896 ft | 484 kts | 341° |
| 2026-05-04 21:30 | 15.80824 | 99.82717 | 31897 ft | 484 kts | 341° |
| 2026-05-04 21:31 | 15.90435 | 99.79489 | 31896 ft | 484 kts | 341° |
| 2026-05-04 21:32 | 15.96835 | 99.77337 | 31894 ft | 483 kts | 341° |
| 2026-05-04 21:32 | 16.03234 | 99.75185 | 31893 ft | 483 kts | 341° |
| 2026-05-04 21:33 | 16.09633 | 99.73031 | 31895 ft | 483 kts | 341° |
| 2026-05-04 21:33 | 16.16027 | 99.70877 | 31896 ft | 483 kts | 341° |
| 2026-05-04 21:34 | 16.22416 | 99.68724 | 31898 ft | 482 kts | 340° |
| 2026-05-04 21:34 | 16.28805 | 99.66569 | 31897 ft | 482 kts | 340° |
| 2026-05-04 21:35 | 16.35188 | 99.64415 | 31897 ft | 481 kts | 340° |
| 2026-05-04 21:35 | 16.38293 | 99.63368 | 31899 ft | 469 kts | 340° |
| 2026-05-04 21:35 | 16.41397 | 99.62322 | 31897 ft | 460 kts | 340° |
| 2026-05-04 21:36 | 16.47481 | 99.60266 | 31897 ft | 465 kts | 340° |
| 2026-05-04 21:36 | 16.53625 | 99.58190 | 31900 ft | 464 kts | 340° |
| 2026-05-04 21:37 | 16.59766 | 99.56114 | 31904 ft | 464 kts | 340° |
| 2026-05-04 21:37 | 16.65894 | 99.54041 | 31904 ft | 463 kts | 340° |
| 2026-05-04 21:38 | 16.72026 | 99.51965 | 31904 ft | 463 kts | 340° |
| 2026-05-04 21:38 | 16.78155 | 99.49889 | 31905 ft | 463 kts | 340° |
| 2026-05-04 21:39 | 16.84283 | 99.47812 | 31911 ft | 463 kts | 340° |
| 2026-05-04 21:39 | 16.90407 | 99.45734 | 31910 ft | 463 kts | 340° |
| 2026-05-04 21:40 | 16.96536 | 99.43654 | 31916 ft | 463 kts | 340° |
| 2026-05-04 21:40 | 17.02669 | 99.41571 | 31920 ft | 463 kts | 340° |
| 2026-05-04 21:41 | 17.08758 | 99.39502 | 31925 ft | 463 kts | 340° |
| 2026-05-04 21:41 | 17.14890 | 99.37416 | 31928 ft | 463 kts | 340° |
| 2026-05-04 21:42 | 17.21020 | 99.35330 | 31927 ft | 463 kts | 340° |
| 2026-05-04 21:42 | 17.27144 | 99.33244 | 31899 ft | 462 kts | 340° |
| 2026-05-04 21:42 | 17.30192 | 99.32206 | 31489 ft | 461 kts | 340° |
| 2026-05-04 21:43 | 17.33252 | 99.31162 | 30673 ft | 464 kts | 340° |
| 2026-05-04 21:43 | 17.36347 | 99.30106 | 29560 ft | 471 kts | 340° |
| 2026-05-04 21:43 | 17.39489 | 99.29033 | 28398 ft | 476 kts | 340° |
| 2026-05-04 21:43 | 17.42628 | 99.27963 | 27636 ft | 472 kts | 340° |
| 2026-05-04 21:44 | 17.45737 | 99.26941 | 27020 ft | 465 kts | 343° |
| 2026-05-04 21:44 | 17.48860 | 99.26151 | 26381 ft | 459 kts | 345° |
| 2026-05-04 21:44 | 17.51913 | 99.25392 | 25751 ft | 454 kts | 345° |
| 2026-05-04 21:44 | 17.55005 | 99.24618 | 25108 ft | 449 kts | 345° |
| 2026-05-04 21:45 | 17.57989 | 99.23871 | 24485 ft | 445 kts | 345° |
| 2026-05-04 21:45 | 17.60978 | 99.23121 | 23868 ft | 441 kts | 345° |
| 2026-05-04 21:45 | 17.63945 | 99.22376 | 23205 ft | 437 kts | 345° |
| 2026-05-04 21:45 | 17.66877 | 99.21641 | 22612 ft | 430 kts | 345° |
| 2026-05-04 21:46 | 17.69770 | 99.20915 | 22022 ft | 424 kts | 345° |
| 2026-05-04 21:46 | 17.72619 | 99.20200 | 21421 ft | 418 kts | 345° |
| 2026-05-04 21:46 | 17.75433 | 99.19493 | 20824 ft | 414 kts | 345° |
| 2026-05-04 21:46 | 17.78219 | 99.18793 | 20202 ft | 410 kts | 345° |
| 2026-05-04 21:47 | 17.80982 | 99.18098 | 19600 ft | 407 kts | 345° |
| 2026-05-04 21:47 | 17.83720 | 99.17410 | 19038 ft | 402 kts | 345° |
| 2026-05-04 21:47 | 17.86427 | 99.16730 | 18456 ft | 399 kts | 345° |
| 2026-05-04 21:47 | 17.89121 | 99.16052 | 17849 ft | 395 kts | 345° |
| 2026-05-04 21:48 | 17.91776 | 99.15384 | 17263 ft | 390 kts | 345° |
| 2026-05-04 21:48 | 17.94402 | 99.14724 | 16695 ft | 385 kts | 345° |
| 2026-05-04 21:48 | 17.96988 | 99.14073 | 16136 ft | 381 kts | 345° |
| 2026-05-04 21:48 | 17.99557 | 99.13426 | 15566 ft | 377 kts | 345° |
| 2026-05-04 21:49 | 18.02103 | 99.12785 | 15006 ft | 374 kts | 345° |
| 2026-05-04 21:49 | 18.04616 | 99.12152 | 14422 ft | 372 kts | 345° |
| 2026-05-04 21:49 | 18.07112 | 99.11523 | 14061 ft | 363 kts | 345° |
| 2026-05-04 21:49 | 18.09516 | 99.10918 | 13924 ft | 348 kts | 345° |
| 2026-05-04 21:50 | 18.11810 | 99.10342 | 13753 ft | 328 kts | 345° |
| 2026-05-04 21:50 | 18.14016 | 99.10128 | 13577 ft | 312 kts | 2° |
| 2026-05-04 21:50 | 18.16076 | 99.10607 | 13406 ft | 296 kts | 20° |
| 2026-05-04 21:50 | 18.17899 | 99.11513 | 13120 ft | 285 kts | 24° |
| 2026-05-04 21:51 | 18.19673 | 99.12415 | 12645 ft | 281 kts | 24° |
| 2026-05-04 21:51 | 18.21391 | 99.13283 | 12540 ft | 273 kts | 23° |
| 2026-05-04 21:51 | 18.23096 | 99.14230 | 12494 ft | 279 kts | 33° |
| 2026-05-04 21:51 | 18.24543 | 99.15582 | 12409 ft | 279 kts | 49° |
| 2026-05-04 21:52 | 18.25705 | 99.17191 | 12317 ft | 280 kts | 52° |
| 2026-05-04 21:52 | 18.26892 | 99.18849 | 12224 ft | 280 kts | 51° |
| 2026-05-04 21:52 | 18.28054 | 99.20456 | 12142 ft | 279 kts | 51° |
| 2026-05-04 21:52 | 18.29230 | 99.22075 | 12059 ft | 279 kts | 51° |
| 2026-05-04 21:53 | 18.30412 | 99.23703 | 11995 ft | 280 kts | 51° |
| 2026-05-04 21:53 | 18.31602 | 99.25302 | 11907 ft | 276 kts | 45° |
| 2026-05-04 21:53 | 18.33103 | 99.26534 | 11818 ft | 274 kts | 25° |
| 2026-05-04 21:53 | 18.34872 | 99.27246 | 11736 ft | 272 kts | 16° |
| 2026-05-04 21:54 | 18.36666 | 99.27875 | 11647 ft | 272 kts | 16° |
| 2026-05-04 21:54 | 18.38453 | 99.28512 | 11563 ft | 270 kts | 16° |
| 2026-05-04 21:54 | 18.40250 | 99.29082 | 11472 ft | 269 kts | 7° |
| 2026-05-04 21:54 | 18.42101 | 99.29152 | 11390 ft | 265 kts | 351° |
| 2026-05-04 21:55 | 18.43736 | 99.28827 | 11307 ft | 264 kts | 346° |
| 2026-05-04 21:55 | 18.45535 | 99.28447 | 11227 ft | 264 kts | 346° |
| 2026-05-04 21:55 | 18.47337 | 99.28077 | 11150 ft | 263 kts | 346° |
| 2026-05-04 21:55 | 18.48999 | 99.27355 | 11069 ft | 258 kts | 320° |
| 2026-05-04 21:56 | 18.50123 | 99.25926 | 10976 ft | 255 kts | 293° |
| 2026-05-04 21:56 | 18.50488 | 99.24111 | 10746 ft | 256 kts | 267° |
| 2026-05-04 21:56 | 18.49999 | 99.22316 | 10397 ft | 257 kts | 242° |
| 2026-05-04 21:56 | 18.49144 | 99.20683 | 10118 ft | 252 kts | 242° |
| 2026-05-04 21:57 | 18.48303 | 99.19062 | 9832 ft | 253 kts | 243° |
| 2026-05-04 21:57 | 18.47480 | 99.17456 | 9543 ft | 251 kts | 243° |
| 2026-05-04 21:57 | 18.46658 | 99.15838 | 9266 ft | 251 kts | 243° |
| 2026-05-04 21:57 | 18.45841 | 99.14221 | 8976 ft | 250 kts | 243° |
| 2026-05-04 21:58 | 18.45025 | 99.12606 | 8708 ft | 249 kts | 243° |
| 2026-05-04 21:58 | 18.44213 | 99.10998 | 8435 ft | 248 kts | 243° |
| 2026-05-04 21:58 | 18.43420 | 99.09387 | 8159 ft | 247 kts | 248° |
| 2026-05-04 21:58 | 18.42969 | 99.07655 | 7881 ft | 245 kts | 264° |
| 2026-05-04 21:59 | 18.42939 | 99.05866 | 7617 ft | 245 kts | 271° |
| 2026-05-04 21:59 | 18.42960 | 99.04079 | 7352 ft | 243 kts | 270° |
| 2026-05-04 21:59 | 18.42970 | 99.02302 | 7090 ft | 242 kts | 270° |
| 2026-05-04 21:59 | 18.42973 | 99.01130 | 6909 ft | 242 kts | 270° |
| 2026-05-04 22:00 | 18.42977 | 98.99361 | 6719 ft | 239 kts | 270° |
| 2026-05-04 22:00 | 18.43304 | 98.97657 | 6624 ft | 241 kts | 297° |
| 2026-05-04 22:00 | 18.44991 | 98.96182 | 6535 ft | 246 kts | 345° |
| 2026-05-04 22:00 | 18.46113 | 98.96055 | 6431 ft | 245 kts | 358° |
| 2026-05-04 22:01 | 18.47818 | 98.96125 | 6110 ft | 245 kts | 1° |
| 2026-05-04 22:01 | 18.49518 | 98.96197 | 5711 ft | 244 kts | 0° |
| 2026-05-04 22:01 | 18.51215 | 98.96221 | 5358 ft | 242 kts | 359° |
| 2026-05-04 22:01 | 18.53440 | 98.96229 | 5245 ft | 246 kts | 359° |
| 2026-05-04 22:02 | 18.54586 | 98.96232 | 5125 ft | 241 kts | 359° |
| 2026-05-04 22:02 | 18.56232 | 98.96236 | 4891 ft | 231 kts | 359° |
| 2026-05-04 22:02 | 18.57808 | 98.96240 | 4620 ft | 222 kts | 360° |
| 2026-05-04 22:02 | 18.59307 | 98.96244 | 4395 ft | 208 kts | 360° |
| 2026-05-04 22:03 | 18.60709 | 98.96247 | 4134 ft | 193 kts | 0° |
| 2026-05-04 22:03 | 18.61969 | 98.96250 | 3905 ft | 169 kts | 0° |
| 2026-05-04 22:03 | 18.63067 | 98.96253 | 3690 ft | 152 kts | 0° |
| 2026-05-04 22:03 | 18.64097 | 98.96256 | 3497 ft | 140 kts | 0° |
| 2026-05-04 22:04 | 18.65068 | 98.96259 | 3332 ft | 143 kts | 0° |
| 2026-05-04 22:04 | 18.66042 | 98.96261 | 3146 ft | 140 kts | 0° |
| 2026-05-04 22:04 | 18.67013 | 98.96264 | 2964 ft | 140 kts | 1° |
| 2026-05-04 22:04 | 18.67987 | 98.96266 | 2784 ft | 139 kts | 1° |
| 2026-05-04 22:05 | 18.68958 | 98.96269 | 2507 ft | 140 kts | 1° |
| 2026-05-04 22:05 | 18.69931 | 98.96276 | 2203 ft | 139 kts | 1° |
| 2026-05-04 22:05 | 18.70883 | 98.96302 | 1930 ft | 137 kts | 0° |
| 2026-05-04 22:05 | 18.71839 | 98.96305 | 1780 ft | 138 kts | 359° |
| 2026-05-04 22:06 | 18.72801 | 98.96288 | 1528 ft | 137 kts | 359° |
| 2026-05-04 22:06 | 18.73749 | 98.96284 | 1377 ft | 138 kts | 0° |
| 2026-05-04 22:06 | 18.74694 | 98.96295 | 1203 ft | 136 kts | 360° |
| 2026-05-04 22:06 | 18.75634 | 98.96293 | 1053 ft | 133 kts | 1° |
| 2026-05-04 22:07 | 18.76470 | 98.96290 | 1031 ft | 95 kts | 0° |
| 2026-05-04 22:07 | 18.76918 | 98.96293 | 1031 ft | 37 kts | 360° |
| 2026-05-04 22:07 | 18.77125 | 98.96309 | 1031 ft | 12 kts | 43° |
| 2026-05-04 22:07 | 18.77141 | 98.96398 | 1031 ft | 14 kts | 92° |
| 2026-05-04 22:08 | 18.77134 | 98.96516 | 1031 ft | 17 kts | 103° |
| 2026-05-04 22:08 | 18.77051 | 98.96616 | 1031 ft | 20 kts | 150° |
| 2026-05-04 22:08 | 18.76932 | 98.96648 | 1031 ft | 0 kts | 177° |
| 2026-05-04 22:08 | 18.76884 | 98.96652 | 1031 ft | 17 kts | 176° |
| 2026-05-04 22:09 | 18.76842 | 98.96690 | 1031 ft | 6 kts | 76° |
| 2026-05-04 22:09 | 18.76843 | 98.96735 | 1031 ft | 0 kts | 88° |